createdAt,value
2022-08-18T00:01:19.540Z,21.38
2022-08-18T00:03:57.428Z,21.35
2022-08-18T00:06:29.581Z,21.33
2022-08-18T00:09:00.720Z,21.30
2022-08-18T00:11:41.504Z,21.33
2022-08-18T00:14:22.660Z,21.33
2022-08-18T00:16:54.893Z,21.31
2022-08-18T00:19:46.257Z,21.31
2022-08-18T00:22:15.911Z,21.29
2022-08-18T00:24:54.395Z,21.26
2022-08-18T00:27:30.662Z,21.25
2022-08-18T00:30:02.152Z,21.22
2022-08-18T00:32:37.995Z,21.19
2022-08-18T00:35:18.403Z,21.16
2022-08-18T00:37:45.921Z,21.15
2022-08-18T00:40:20.824Z,21.15
2022-08-18T00:42:56.071Z,21.15
2022-08-18T00:45:32.737Z,21.09
2022-08-18T00:48:00.854Z,21.08
2022-08-18T00:50:51.129Z,21.10
2022-08-18T00:53:41.025Z,21.03
2022-08-18T00:56:24.690Z,21.06
2022-08-18T00:59:28.609Z,21.08
2022-08-18T01:02:02.611Z,21.09
2022-08-18T01:04:43.007Z,21.11
2022-08-18T01:07:21.782Z,21.14
2022-08-18T01:09:51.546Z,21.08
2022-08-18T01:12:43.947Z,21.11
2022-08-18T01:15:08.834Z,21.07
2022-08-18T01:18:19.719Z,21.02
2022-08-18T01:21:38.949Z,21.02
2022-08-18T01:24:12.846Z,21.02
2022-08-18T01:26:49.905Z,20.96
2022-08-18T01:29:19.941Z,20.89
2022-08-18T01:31:56.033Z,20.89
2022-08-18T01:34:28.297Z,20.88
2022-08-18T01:36:57.029Z,20.91
2022-08-18T01:41:22.378Z,20.95
2022-08-18T01:42:17.411Z,20.95
2022-08-18T01:44:48.503Z,20.89
2022-08-18T01:47:18.201Z,20.88
2022-08-18T01:49:45.789Z,20.82
2022-08-18T01:52:21.868Z,20.80
2022-08-18T01:54:51.462Z,20.82
2022-08-18T01:57:21.314Z,20.84
2022-08-18T01:59:48.781Z,20.84
2022-08-18T02:02:28.444Z,20.86
2022-08-18T02:05:05.210Z,20.87
2022-08-18T02:07:36.370Z,20.88
2022-08-18T02:10:11.716Z,20.88
2022-08-18T02:12:41.205Z,20.87
2022-08-18T02:15:10.072Z,20.87
2022-08-18T02:17:44.234Z,20.83
2022-08-18T02:20:18.228Z,20.76
2022-08-18T02:22:47.497Z,20.78
2022-08-18T02:25:17.185Z,20.79
2022-08-18T02:27:45.899Z,20.83
2022-08-18T02:30:18.531Z,20.89
2022-08-18T02:32:45.970Z,20.95
2022-08-18T02:35:13.306Z,20.97
2022-08-18T02:37:42.748Z,20.97
2022-08-18T02:40:15.197Z,20.94
2022-08-18T02:42:46.376Z,20.86
2022-08-18T02:45:14.808Z,20.81
2022-08-18T02:47:47.164Z,20.76
2022-08-18T02:50:16.541Z,20.74
2022-08-18T02:52:43.717Z,20.75
2022-08-18T02:55:12.295Z,20.79
2022-08-18T02:57:45.951Z,20.79
2022-08-18T03:00:18.975Z,20.79
2022-08-18T03:02:52.012Z,20.78
2022-08-18T03:05:20.285Z,20.83
2022-08-18T03:07:47.658Z,20.84
2022-08-18T03:10:33.409Z,20.86
2022-08-18T03:13:02.326Z,20.83
2022-08-18T03:15:29.767Z,20.83
2022-08-18T03:17:58.049Z,20.83
2022-08-18T03:20:30.485Z,20.81
2022-08-18T03:23:05.582Z,20.73
2022-08-18T03:25:45.048Z,20.65
2022-08-18T03:28:13.376Z,20.66
2022-08-18T03:30:41.190Z,20.62
2022-08-18T03:33:08.967Z,20.64
2022-08-18T03:35:37.408Z,20.68
2022-08-18T03:38:05.658Z,20.69
2022-08-18T03:40:33.409Z,20.67
2022-08-18T03:43:23.741Z,20.66
2022-08-18T03:45:56.052Z,20.63
2022-08-18T03:48:23.428Z,20.57
2022-08-18T03:50:50.713Z,20.51
2022-08-18T03:53:18.595Z,20.47
2022-08-18T03:55:46.090Z,20.48
2022-08-18T03:58:13.669Z,20.50
2022-08-18T04:00:41.779Z,20.50
2022-08-18T04:03:09.668Z,20.48
2022-08-18T04:05:41.087Z,20.36
2022-08-18T04:08:08.434Z,20.32
2022-08-18T04:10:35.826Z,20.41
2022-08-18T04:13:05.478Z,20.45
2022-08-18T04:15:33.680Z,20.42
2022-08-18T04:18:08.313Z,20.38
2022-08-18T04:20:36.340Z,20.43
2022-08-18T04:23:03.705Z,20.44
2022-08-18T04:25:33.143Z,20.42
2022-08-18T04:28:03.509Z,20.43
2022-08-18T04:30:31.318Z,20.43
2022-08-18T04:32:58.677Z,20.52
2022-08-18T04:35:29.127Z,20.63
2022-08-18T04:37:56.486Z,20.70
2022-08-18T04:40:25.319Z,20.70
2022-08-18T04:42:52.874Z,20.75
2022-08-18T04:45:20.237Z,20.80
2022-08-18T04:47:47.585Z,20.88
2022-08-18T04:50:14.949Z,20.94
2022-08-18T04:53:02.320Z,21.00
2022-08-18T04:55:30.040Z,20.99
2022-08-18T04:57:59.327Z,20.95
2022-08-18T05:00:26.718Z,20.81
2022-08-18T05:02:54.527Z,20.78
2022-08-18T05:05:21.822Z,20.79
2022-08-18T05:07:49.547Z,20.81
2022-08-18T05:10:19.911Z,20.84
2022-08-18T05:17:45.334Z,20.80
2022-08-18T05:20:18.212Z,20.70
2022-08-18T05:22:45.582Z,20.73
2022-08-18T05:25:13.410Z,20.68
2022-08-18T05:27:43.917Z,20.76
2022-08-18T05:30:15.376Z,20.65
2022-08-18T05:32:49.953Z,20.57
2022-08-18T05:35:42.596Z,20.56
2022-08-18T05:38:32.466Z,20.54
2022-08-18T05:41:13.644Z,20.49
2022-08-18T05:43:51.895Z,20.39
2022-08-18T05:46:35.150Z,20.36
2022-08-18T05:49:02.409Z,20.30
2022-08-18T05:51:42.819Z,20.23
2022-08-18T05:54:30.096Z,20.18
2022-08-18T05:57:08.706Z,20.03
2022-08-18T05:59:41.288Z,19.99
2022-08-18T06:02:27.716Z,19.97
2022-08-18T06:05:05.273Z,19.97
2022-08-18T06:07:44.763Z,19.89
2022-08-18T06:10:14.344Z,19.81
2022-08-18T06:12:51.767Z,19.69
2022-08-18T06:16:12.688Z,19.67
2022-08-18T06:19:36.161Z,19.62
2022-08-18T06:22:16.586Z,19.60
2022-08-18T06:25:02.013Z,19.60
2022-08-18T06:28:01.596Z,19.59
2022-08-18T06:30:38.811Z,19.58
2022-08-18T06:33:31.667Z,19.55
2022-08-18T06:36:35.976Z,19.49
2022-08-18T06:39:40.690Z,19.51
2022-08-18T06:42:08.082Z,19.54
2022-08-18T06:44:51.600Z,19.50
2022-08-18T06:47:41.374Z,19.52
2022-08-18T06:50:48.053Z,19.46
2022-08-18T06:53:27.471Z,19.55
2022-08-18T06:55:56.386Z,19.59
2022-08-18T06:58:31.372Z,19.66
2022-08-18T07:01:07.641Z,19.74
2022-08-18T07:03:46.349Z,19.86
2022-08-18T07:06:23.109Z,20.03
2022-08-18T07:08:54.938Z,20.22
2022-08-18T07:11:34.251Z,20.16
2022-08-18T07:14:22.833Z,20.28
2022-08-18T07:16:59.846Z,20.22
2022-08-18T07:19:32.451Z,20.16
2022-08-18T07:22:12.656Z,20.15
2022-08-18T07:24:54.309Z,19.93
2022-08-18T07:27:49.198Z,19.97
2022-08-18T07:30:22.009Z,20.04
2022-08-18T07:33:21.174Z,20.11
2022-08-18T07:35:59.792Z,20.26
2022-08-18T07:38:53.370Z,20.47
2022-08-18T07:41:40.893Z,20.39
2022-08-18T07:44:27.433Z,20.47
2022-08-18T07:47:42.974Z,20.48
2022-08-18T07:50:36.172Z,20.63
2022-08-18T07:53:25.657Z,20.51
2022-08-18T07:56:07.494Z,20.54
2022-08-18T07:59:14.883Z,20.65
2022-08-18T08:02:29.054Z,20.69
2022-08-18T08:05:44.976Z,20.70
2022-08-18T08:08:30.858Z,20.86
2022-08-18T08:11:18.583Z,20.94
2022-08-18T08:14:35.566Z,20.94
2022-08-18T08:17:17.750Z,20.69
2022-08-18T08:20:12.670Z,20.48
2022-08-18T08:23:17.992Z,20.48
2022-08-18T08:26:37.152Z,20.45
2022-08-18T08:30:02.553Z,20.42
2022-08-18T08:32:41.741Z,20.53
2022-08-18T08:35:49.274Z,20.50
2022-08-18T08:38:44.969Z,20.33
2022-08-18T08:41:26.117Z,20.28
2022-08-18T08:44:25.632Z,20.16
2022-08-18T08:47:32.231Z,20.26
2022-08-18T08:50:10.754Z,20.17
2022-08-18T08:53:41.809Z,20.08
2022-08-18T08:56:14.604Z,20.07
2022-08-18T08:59:22.690Z,20.06
2022-08-18T09:02:15.940Z,20.03
2022-08-18T09:05:19.509Z,20.04
2022-08-18T09:08:21.875Z,19.99
2022-08-18T09:11:33.596Z,19.98
2022-08-18T09:14:57.195Z,19.98
2022-08-18T09:18:25.526Z,19.91
2022-08-18T09:21:40.809Z,19.80
2022-08-18T09:24:45.165Z,19.83
2022-08-18T09:28:09.390Z,19.79
2022-08-18T09:35:05.562Z,19.70
2022-08-18T09:38:27.122Z,19.68
2022-08-18T09:41:32.416Z,19.64
2022-08-18T09:44:18.212Z,19.61
2022-08-18T09:46:58.040Z,19.60
2022-08-18T09:50:37.216Z,19.56
2022-08-18T09:52:24.185Z,19.51
2022-08-18T09:55:00.902Z,19.66
2022-08-18T09:57:43.772Z,19.80
2022-08-18T10:00:14.581Z,19.81
2022-08-18T10:02:48.704Z,19.79
2022-08-18T10:05:19.956Z,19.71
2022-08-18T10:11:16.482Z,19.74
2022-08-18T10:14:51.372Z,19.77
2022-08-18T10:18:11.740Z,19.77
2022-08-18T10:20:47.630Z,19.73
2022-08-18T10:26:54.574Z,19.73
2022-08-18T10:29:28.479Z,19.76
2022-08-18T10:31:55.941Z,19.79
2022-08-18T10:37:49.133Z,19.66
2022-08-18T10:40:22.884Z,19.70
2022-08-18T10:46:39.626Z,19.82
2022-08-18T10:49:13.837Z,19.85
2022-08-18T10:52:18.067Z,19.80
2022-08-18T10:55:10.201Z,19.90
2022-08-18T10:58:40.665Z,19.71
2022-08-18T11:01:55.664Z,19.52
2022-08-18T11:04:47.404Z,19.36
2022-08-18T11:07:34.039Z,19.32
2022-08-18T11:10:30.361Z,19.29
2022-08-18T11:13:54.618Z,19.16
2022-08-18T11:17:13.057Z,19.09
2022-08-18T11:19:46.736Z,19.12
2022-08-18T11:22:33.236Z,19.23
2022-08-18T11:25:18.692Z,19.35
2022-08-18T11:27:49.106Z,19.44
2022-08-18T11:30:18.951Z,19.52
2022-08-18T11:32:52.268Z,19.35
2022-08-18T11:35:30.003Z,19.34
2022-08-18T11:38:04.010Z,19.37
2022-08-18T11:41:13.027Z,19.47
2022-08-18T11:43:43.020Z,19.59
2022-08-18T11:46:30.422Z,19.58
2022-08-18T11:49:01.893Z,19.58
2022-08-18T11:51:33.986Z,19.61
2022-08-18T11:57:59.348Z,19.72
2022-08-18T12:00:45.468Z,19.94
2022-08-18T12:03:43.819Z,20.24
2022-08-18T12:06:30.281Z,20.19
2022-08-18T12:09:16.381Z,20.36
2022-08-18T12:11:58.825Z,20.67
2022-08-18T12:14:35.541Z,21.17
2022-08-18T12:17:08.409Z,21.78
2022-08-18T12:19:35.826Z,22.05
2022-08-18T12:22:19.380Z,22.41
2022-08-18T12:24:48.557Z,22.22
2022-08-18T12:30:16.694Z,21.50
2022-08-18T12:35:31.667Z,22.37
2022-08-18T12:38:03.271Z,22.68
2022-08-18T12:40:40.006Z,22.18
2022-08-18T12:43:07.598Z,21.93
2022-08-18T12:48:22.621Z,21.84
2022-08-18T12:50:55.844Z,21.97
2022-08-18T12:53:29.890Z,22.19
2022-08-18T12:56:32.703Z,21.62
2022-08-18T12:59:05.270Z,21.55
2022-08-18T13:01:35.686Z,21.22
2022-08-18T13:04:13.373Z,21.24
2022-08-18T13:07:00.458Z,21.26
2022-08-18T13:09:42.814Z,21.22
2022-08-18T13:12:20.058Z,21.10
2022-08-18T13:14:51.204Z,21.08
2022-08-18T13:17:29.425Z,21.22
2022-08-18T13:20:13.467Z,21.39
2022-08-18T13:22:41.728Z,21.82
2022-08-18T13:25:32.176Z,22.05
2022-08-18T13:28:05.515Z,22.24
2022-08-18T13:30:35.542Z,22.13
2022-08-18T13:33:05.828Z,22.26
2022-08-18T13:35:54.406Z,22.11
2022-08-18T13:38:26.047Z,21.70
2022-08-18T13:41:04.828Z,21.29
2022-08-18T13:43:43.206Z,21.10
2022-08-18T13:46:19.682Z,21.07
2022-08-18T13:49:03.154Z,21.37
2022-08-18T13:51:31.229Z,21.39
2022-08-18T13:54:26.665Z,21.70
2022-08-18T13:56:51.268Z,21.55
2022-08-18T13:59:22.465Z,21.65
2022-08-18T14:01:53.202Z,21.61
2022-08-18T14:04:22.812Z,21.37
2022-08-18T14:06:56.877Z,21.64
2022-08-18T14:09:37.263Z,22.00
2022-08-18T14:12:22.423Z,22.48
2022-08-18T14:14:56.893Z,22.58
2022-08-18T14:17:26.019Z,22.68
2022-08-18T14:20:15.154Z,22.24
2022-08-18T14:23:11.987Z,22.34
2022-08-18T14:25:59.953Z,22.09
2022-08-18T14:28:30.245Z,21.80
2022-08-18T14:31:00.453Z,21.76
2022-08-18T14:33:49.541Z,21.57
2022-08-18T14:36:18.997Z,21.40
2022-08-18T14:38:46.436Z,21.34
2022-08-18T14:41:20.232Z,21.31
2022-08-18T14:44:11.027Z,21.44
2022-08-18T14:46:51.985Z,21.60
2022-08-18T14:49:29.452Z,21.69
2022-08-18T14:52:01.179Z,22.23
2022-08-18T14:54:30.608Z,23.21
2022-08-18T14:57:01.699Z,24.93
2022-08-18T14:59:30.940Z,27.90
2022-08-18T15:02:02.164Z,28.67
2022-08-18T15:04:29.563Z,29.23
2022-08-18T15:06:57.724Z,30.32
2022-08-18T15:09:30.131Z,30.04
2022-08-18T15:12:00.094Z,28.39
2022-08-18T15:14:33.166Z,26.74
2022-08-18T15:17:11.728Z,26.49
2022-08-18T15:20:00.193Z,25.20
2022-08-18T15:22:47.786Z,24.46
2022-08-18T15:25:41.907Z,24.55
2022-08-18T15:28:17.528Z,24.13
2022-08-18T15:30:52.129Z,24.28
2022-08-18T15:33:24.287Z,25.05
2022-08-18T15:35:53.528Z,25.90
2022-08-18T15:38:25.472Z,26.16
2022-08-18T15:41:05.936Z,26.65
2022-08-18T15:43:45.839Z,26.17
2022-08-18T15:46:14.024Z,27.23
2022-08-18T15:48:44.260Z,29.12
2022-08-18T15:51:12.480Z,30.23
2022-08-18T15:53:44.872Z,30.76
2022-08-18T15:56:25.968Z,29.68
2022-08-18T15:58:53.736Z,30.14
2022-08-18T16:01:32.129Z,30.87
2022-08-18T16:04:01.131Z,30.29
2022-08-18T16:06:32.657Z,30.58
2022-08-18T16:09:02.287Z,33.31
2022-08-18T16:11:30.408Z,33.78
2022-08-18T16:13:59.070Z,33.64
2022-08-18T16:16:36.233Z,32.63
2022-08-18T16:19:07.778Z,32.48
2022-08-18T16:21:39.585Z,31.32
2022-08-18T16:24:08.520Z,32.85
2022-08-18T16:26:35.917Z,33.91
2022-08-18T16:29:03.417Z,33.30
2022-08-18T16:31:30.741Z,31.06
2022-08-18T16:33:58.375Z,31.41
2022-08-18T16:36:26.389Z,31.23
2022-08-18T16:38:58.290Z,32.31
2022-08-18T16:41:26.991Z,33.20
2022-08-18T16:43:54.721Z,33.35
2022-08-18T16:46:26.188Z,31.14
2022-08-18T16:48:56.444Z,27.73
2022-08-18T16:51:27.381Z,26.65
2022-08-18T16:53:55.568Z,25.84
2022-08-18T16:56:30.498Z,25.12
2022-08-18T16:59:16.531Z,25.00
2022-08-18T17:02:02.830Z,25.42
2022-08-18T17:04:33.781Z,24.85
2022-08-18T17:07:05.080Z,24.30
2022-08-18T17:09:35.259Z,24.43
2022-08-18T17:12:03.148Z,24.06
2022-08-18T17:14:32.489Z,23.96
2022-08-18T17:17:01.176Z,23.75
2022-08-18T17:19:34.074Z,23.45
2022-08-18T17:22:05.199Z,23.34
2022-08-18T17:24:33.199Z,23.15
2022-08-18T17:27:26.168Z,23.04
2022-08-18T17:30:18.730Z,23.09
2022-08-18T17:33:08.786Z,23.11
2022-08-18T17:35:45.521Z,22.73
2022-08-18T17:38:40.357Z,22.64
2022-08-18T17:41:07.637Z,22.61
2022-08-18T17:46:28.997Z,22.49
2022-08-18T17:49:54.412Z,22.31
2022-08-18T17:52:52.637Z,22.50
2022-08-18T17:55:39.194Z,22.49
2022-08-18T17:58:20.381Z,22.50
2022-08-18T18:00:47.958Z,22.52
2022-08-18T18:03:15.412Z,22.47
2022-08-18T18:05:51.894Z,22.38
2022-08-18T18:08:19.336Z,22.38
2022-08-18T18:11:04.245Z,22.17
2022-08-18T18:13:33.821Z,21.78
2022-08-18T18:16:29.167Z,21.76
2022-08-18T18:19:13.074Z,21.81
2022-08-18T18:22:00.337Z,21.73
2022-08-18T18:24:37.124Z,21.81
2022-08-18T18:27:27.853Z,21.67
2022-08-18T18:30:08.079Z,21.81
2022-08-18T18:33:00.465Z,21.94
2022-08-18T18:35:54.305Z,21.92
2022-08-18T18:38:38.704Z,21.69
2022-08-18T18:41:27.144Z,21.67
2022-08-18T18:44:11.254Z,21.49
2022-08-18T18:47:12.632Z,21.63
2022-08-18T18:50:14.695Z,21.53
2022-08-18T18:53:37.023Z,21.35
2022-08-18T18:56:45.627Z,20.95
2022-08-18T19:00:18.112Z,20.75
2022-08-18T19:03:11.038Z,20.63
2022-08-18T19:05:59.180Z,20.50
2022-08-18T19:09:17.273Z,20.47
2022-08-18T19:12:18.787Z,20.40
2022-08-18T19:15:08.324Z,20.29
2022-08-18T19:17:49.313Z,20.29
2022-08-18T19:20:36.789Z,20.22
2022-08-18T19:23:44.848Z,20.30
2022-08-18T19:26:28.342Z,20.47
2022-08-18T19:29:16.018Z,20.51
2022-08-18T19:32:17.190Z,20.36
2022-08-18T19:34:51.199Z,20.16
2022-08-18T19:37:47.888Z,20.07
2022-08-18T19:40:45.293Z,20.06
2022-08-18T19:43:39.997Z,20.16
2022-08-18T19:46:24.273Z,20.13
2022-08-18T19:49:22.703Z,20.08
2022-08-18T19:51:58.501Z,20.02
2022-08-18T19:55:09.997Z,19.89
2022-08-18T19:58:31.961Z,19.83
2022-08-18T20:01:07.658Z,19.67
2022-08-18T20:04:18.149Z,19.57
2022-08-18T20:07:20.810Z,19.67
2022-08-18T20:10:36.684Z,19.78
2022-08-18T20:13:32.547Z,19.81
2022-08-18T20:16:02.649Z,19.74
2022-08-18T20:18:47.410Z,19.68
2022-08-18T20:21:14.682Z,19.70
2022-08-18T20:24:22.294Z,19.62
2022-08-18T20:26:50.708Z,19.65
2022-08-18T20:29:46.360Z,19.58
2022-08-18T20:32:31.973Z,19.51
2022-08-18T20:35:26.832Z,19.66
2022-08-18T20:38:34.722Z,19.66
2022-08-18T20:41:30.000Z,19.49
2022-08-18T20:44:36.321Z,19.66
2022-08-18T20:48:03.028Z,19.49
2022-08-18T20:51:11.974Z,19.46
2022-08-18T20:54:25.036Z,19.31
2022-08-18T20:57:01.509Z,19.15
2022-08-18T21:00:02.155Z,19.10
2022-08-18T21:02:40.625Z,19.00
2022-08-18T21:05:10.486Z,18.95
2022-08-18T21:08:16.113Z,18.90
2022-08-18T21:11:06.994Z,18.86
2022-08-18T21:13:43.480Z,18.79
2022-08-18T21:16:43.245Z,18.74
2022-08-18T21:19:27.857Z,18.73
2022-08-18T21:22:04.306Z,18.67
2022-08-18T21:24:37.650Z,18.65
2022-08-18T21:27:35.257Z,18.64
2022-08-18T21:30:23.621Z,18.64
2022-08-18T21:32:52.006Z,18.64
2022-08-18T21:35:35.294Z,18.66
2022-08-18T21:38:12.161Z,18.70
2022-08-18T21:40:48.253Z,18.67
2022-08-18T21:43:49.638Z,18.58
2022-08-18T21:46:29.319Z,18.62
2022-08-18T21:49:03.697Z,18.67
2022-08-18T21:51:49.524Z,18.82
2022-08-18T21:54:27.895Z,18.82
2022-08-18T21:57:46.411Z,18.81
2022-08-18T22:00:41.479Z,18.75
2022-08-18T22:03:28.117Z,18.67
2022-08-18T22:06:26.136Z,18.61
2022-08-18T22:09:27.886Z,18.51
2022-08-18T22:12:54.126Z,18.64
2022-08-18T22:15:27.474Z,18.61
2022-08-18T22:18:07.888Z,18.53
2022-08-18T22:20:47.774Z,18.44
2022-08-18T22:23:33.447Z,18.41
2022-08-18T22:26:26.759Z,18.35
2022-08-18T22:29:32.437Z,18.30
2022-08-18T22:32:02.333Z,18.46
2022-08-18T22:34:34.250Z,18.50
2022-08-18T22:37:08.121Z,18.55
2022-08-18T22:40:21.597Z,18.54
2022-08-18T22:42:49.612Z,18.60
2022-08-18T22:45:18.759Z,18.60
2022-08-18T22:47:46.048Z,18.63
2022-08-18T22:50:14.938Z,18.63
2022-08-18T22:52:49.527Z,18.64
2022-08-18T22:55:25.589Z,18.57
2022-08-18T22:57:57.059Z,18.55
2022-08-18T23:00:25.805Z,18.57
2022-08-18T23:02:54.778Z,18.58
2022-08-18T23:05:22.361Z,18.65
2022-08-18T23:07:49.945Z,18.68
2022-08-18T23:10:18.216Z,18.69
2022-08-18T23:12:47.981Z,18.77
2022-08-18T23:15:18.806Z,18.82
2022-08-18T23:17:46.177Z,18.87
2022-08-18T23:20:18.360Z,18.91
2022-08-18T23:22:48.164Z,18.94
2022-08-18T23:25:15.759Z,18.93
2022-08-18T23:27:43.259Z,18.91
2022-08-18T23:30:11.682Z,18.90
2022-08-18T23:32:39.269Z,18.86
2022-08-18T23:35:07.296Z,18.87
2022-08-18T23:37:34.718Z,18.84
2022-08-18T23:40:02.534Z,18.83
2022-08-18T23:42:31.566Z,18.78
2022-08-18T23:45:03.013Z,18.73
2022-08-18T23:47:30.933Z,18.62
2022-08-18T23:49:58.421Z,18.52
2022-08-18T23:52:25.702Z,18.43
2022-08-18T23:54:52.989Z,18.41
2022-08-18T23:57:20.265Z,18.42
2022-08-18T23:59:47.509Z,18.52
